Hlavní strana
METAR-TAF:

METAR-TAF

Letiště :

Letiště Brusel

Brusel, Belgie

zeměpisná šířka: 50-54N, zeměpisná délka: 004-32E, výška: 55 m

Aktuální stav počasí

Zpráva byla vytvořena před 16 minutami, v 09:20 UTC
Západní vítr 10 kt
Teplota 6°C
Vlhkost vzduchu 81%
Tlak 1024 hPa
Viditelnost 10 km a více
Skoro jasno ve výšce 2600 ft

METAR: EBBR 100920Z 26010KT 9999 FEW026 06/03 Q1024 NOSIG

Čas: 10:36 (09:36 UTC)

Předpověď počasí

Zpráva byla vytvořena před 4 hodinami a 26 minutami, v 05:10 UTC
Předpověď platná od 10 v 06 UTC do 11 v 12 UTC
Západní vítr 8 kt
Viditelnost 10 km a více
Skoro jasno ve výšce 2500 ft
Pravděpodobnost 30% :
Dočasný
od 10 v 14 UTC do 10 v 17 UTC
Viditelnost: 4000 m
Skoro jasno ve výšce 900 ft
Oblačno až skoro zataženo ve výšce 1400 ft, Vertikální cumulus.
dešťové přeháňky

TAF: EBBR 100510Z 1006/1112 28008KT 9999 FEW025 PROB30 TEMPO 1014/1017 4000 SHRA FEW009 BKN014TCU

Stav a předpovědi počasí z více než 4 000 letišť (zprávy METAR a TAF).

Červené a žluté tečky na mapě představují dostupné meteorologické stanice.

Když kurzor umístíte na tečku, zobrazí se název stanice.

Pak kliknutím zobrazíte stav a předpověď počasí.

Chcete-li změnit mapu, kliknutím na zelené tlačítko se znaménkem +mapu přiblížíte, kliknutím na zelené tlačítko se znaménkem – mapu oddálíte a kliknutím na zelené šipky přejdete na sousední mapy.


METAR-TAF: